CheckWX is a tool to help pilots better visualize weather data.  It is not intended as a substitute for an official pre-flight weather briefing.

14:15:52 UTC

KFAR METAR
Hector International Airport
Fargo, North Dakota, USA
Current

23 mins ago

KFAR 221353Z 36008KT 10SM CLR 11/05 A3016 RMK AO2 SLP218 T01060050
Observed
Apr-22 @ 13:53 UTC
Wind
  • 360° at 8 KTS
Visibility
10 SM
Flight Rules
VFR
Cloud Levels
  • Clear skies
Temperature
11°C / 52°F
Dewpoint
C / 41°F
Humidity
67%
Altimeter
30.16" Hg
Pressure
1021.32 hPa
Previous

1 hour ago

KFAR 221253Z 02009KT 10SM CLR 08/04 A3016 RMK AO2 SLP216 T00830044
Observed
Apr-22 @ 12:53 UTC
Wind
  • 020° at 9 KTS
Visibility
10 SM
Flight Rules
VFR
Cloud Levels
  • Clear skies
Temperature
C / 46°F
Dewpoint
C / 39°F
Humidity
76%
Altimeter
30.16" Hg
Pressure
1021.32 hPa
Previous

2 hours ago

KFAR 221153Z 02007KT 10SM CLR 07/04 A3014 RMK AO2 SLP209 T00720039 10100 20072 51008
Observed
Apr-22 @ 11:53 UTC
Wind
  • 020° at 7 KTS
Visibility
10 SM
Flight Rules
VFR
Cloud Levels
  • Clear skies
Temperature
C / 45°F
Dewpoint
C / 39°F
Humidity
81%
Altimeter
30.14" Hg
Pressure
1020.62 hPa